Port Hope, Minnesota
Current Conditions -  °F | °C
As of 11:53 PM on Saturday 20 Dec 2014 (Local Time) from KBJI Reporting Station
Light Snow Light Snow  
Wind Chill: 17°   Ceiling: 600
Heat Index: 28°   Visibility: 5mi
Dew Point: 27°   Wind: 14mph
Humidity: 94%   Direction: 150°SSE
Pressure: 29.9"   Gusts: NA
Location:  47.5271°N, 94.7611°W
Report Text: KBJI 210553Z AUTO 15012KT 5SM -SN OVC006 M02/M03 A2990 RMK AO2 T10211029
Loading
Personal Weather Stations






























Interactive Weather Map New forecast layout! Learn more

10-Day Weather Forecast

Advertisements
Track Severe Weather on mobile